Royal Melbourne — WDC2865 — position and weather

sailwx.info

Track history (hours):
 
Tides and Currents Weather Stations Pressure Air Temp Water Temp Dewpoint Dewpoint Depression Visibility Wind Speed Wind Dir Waves Ship Positions

Royal Melbourne

Owner: Harley Marine Services, Inc, Seattle, WA. More information available from US FCC via Universal Licensing System and Coast Guard Vessel Documentation Center.

Last reported at 2015-Mar-02 10:28 UTC. Time now 2015-Mar-02 11:16 UTC.
Position N 37°48' W 122°17'.

Length 30 m; draft 2 m.

Type: Tug. MMSI: 366998830.

Date/timePositionNaut miles runAvg speedWind from/ knotsBaromVisibWave heightAir tempDewpointWater temp
2015-Mar-02 10:28N 37°48' W 122°17'0 0.0
2015-Mar-02 09:22N 37°48' W 122°17'0 0.0
2015-Mar-02 08:28N 37°48' W 122°17'0 0.0
2015-Mar-02 07:28N 37°48' W 122°17'0 0.0
2015-Mar-02 06:33N 37°48' W 122°17'4 4.0
2015-Mar-02 05:33N 37°45' W 122°21'0 0.0
2015-Mar-02 04:27N 37°45' W 122°21'0 0.0
2015-Mar-02 03:33N 37°45' W 122°21'0 0.1
2015-Mar-02 02:33N 37°45' W 122°21'0 0.0
2015-Mar-02 01:09N 37°45' W 122°21'0 0.1
2015-Mar-02 00:33N 37°46' W 122°21'1 0.9
2015-Mar-01 23:33N 37°46' W 122°20'0 0.1
2015-Mar-01 22:21N 37°46' W 122°21'0 0.0
2015-Mar-01 21:30N 37°46' W 122°21'2 1.8
2015-Mar-01 20:33N 37°48' W 122°20'2 2.4
2015-Mar-01 19:31N 37°48' W 122°17'0 0.0
2015-Mar-01 18:28N 37°48' W 122°17'0 0.0
2015-Mar-01 17:31N 37°48' W 122°17'0 0.0
2015-Mar-01 16:31N 37°48' W 122°17'0 0.0
2015-Mar-01 15:13N 37°48' W 122°17'0 0.0
2015-Mar-01 14:28N 37°48' W 122°17'0 0.0
2015-Mar-01 13:28N 37°48' W 122°17'0 0.0
2015-Mar-01 12:28N 37°48' W 122°17'0 0.0
2015-Mar-01 11:22N 37°48' W 122°17'0 0.0
2015-Mar-01 10:28N 37°48' W 122°17'0 0.0
2015-Mar-01 09:28N 37°48' W 122°17'0 0.0
2015-Mar-01 08:31N 37°48' W 122°17'0 0.0
2015-Mar-01 07:28N 37°48' W 122°17'0 0.0
2015-Mar-01 06:28N 37°48' W 122°17'0 0.0
2015-Mar-01 05:31N 37°48' W 122°17'0 0.0
2015-Mar-01 04:22N 37°48' W 122°17'0 0.0
2015-Mar-01 03:22N 37°48' W 122°17'0 0.0
2015-Mar-01 01:30N 37°48' W 122°17'0 0.0
2015-Mar-01 00:33N 37°48' W 122°17'0 0.0
2015-Feb-28 23:33N 37°48' W 122°17'0 0.0
2015-Feb-28 22:33N 37°48' W 122°17'0 0.0
2015-Feb-28 21:33N 37°48' W 122°17'0 0.0
2015-Feb-28 20:30N 37°48' W 122°17'0 0.0
2015-Feb-28 19:33N 37°48' W 122°17'0 0.0
2015-Feb-28 18:30N 37°48' W 122°17'0 0.0
2015-Feb-28 17:18N 37°48' W 122°17'0 0.0
2015-Feb-28 16:33N 37°48' W 122°17'0 0.0
2015-Feb-28 15:33N 37°48' W 122°17'0 0.0
2015-Feb-28 13:24N 37°48' W 122°17'0 0.0
2015-Feb-28 12:15N 37°48' W 122°17'0 0.0
2015-Feb-28 11:30N 37°48' W 122°17'0 0.0
2015-Feb-28 10:33N 37°48' W 122°17'0 0.0
2015-Feb-28 09:33N 37°48' W 122°17'0 0.0
2015-Feb-28 08:33N 37°48' W 122°17'0 0.0
2015-Feb-28 07:27N 37°48' W 122°17'0 0.0
2015-Feb-28 06:30N 37°48' W 122°17'0 0.0
2015-Feb-28 05:33N 37°48' W 122°17'0 0.0
2015-Feb-28 04:33N 37°48' W 122°17'0 0.0
2015-Feb-28 03:33N 37°48' W 122°17'0 0.0
2015-Feb-28 02:30N 37°48' W 122°17'0 0.0
2015-Feb-28 01:33N 37°48' W 122°17'0 0.0
2015-Feb-28 00:33N 37°48' W 122°17'0 0.0
2015-Feb-27 23:30N 37°48' W 122°17'0 0.0
2015-Feb-27 22:33N 37°48' W 122°17'0 0.0
2015-Feb-27 21:33N 37°48' W 122°17'0 0.0
2015-Feb-27 20:30N 37°48' W 122°17'0 0.0
2015-Feb-27 19:33N 37°48' W 122°17'0 0.0
2015-Feb-27 18:33N 37°48' W 122°17'0 0.0
2015-Feb-27 17:32N 37°48' W 122°17'0 0.0
2015-Feb-27 16:32N 37°48' W 122°17'0 0.0
2015-Feb-27 15:29N 37°48' W 122°17'0 0.0
2015-Feb-27 14:32N 37°48' W 122°17'0 0.0
2015-Feb-27 13:32N 37°48' W 122°17'0 0.0
2015-Feb-27 12:32N 37°48' W 122°17'0 0.0
2015-Feb-27 11:32N 37°48' W 122°17'0 0.0
2015-Feb-27 10:32N 37°48' W 122°17'0 0.0
2015-Feb-27 09:29N 37°48' W 122°17'0 0.0
2015-Feb-27 08:32N 37°48' W 122°17'0 0.0
2015-Feb-27 07:26N 37°48' W 122°17'0 0.0
2015-Feb-27 06:32N 37°48' W 122°17'0 0.0
2015-Feb-27 05:32N 37°48' W 122°17'0 0.1
2015-Feb-27 04:32N 37°48' W 122°17'1 1.3
2015-Feb-27 03:31N 37°48' W 122°19'0 0.0
2015-Feb-27 02:31N 37°48' W 122°19'0 0.0
2015-Feb-27 01:33N 37°48' W 122°19'1 1.3
2015-Feb-27 00:33N 37°49' W 122°19'0 0.0
2015-Feb-26 23:32N 37°49' W 122°19'0 0.0
2015-Feb-26 22:33N 37°49' W 122°19'2 1.5
2015-Feb-26 21:34N 37°48' W 122°18'0 0.0
2015-Feb-26 20:33N 37°48' W 122°18'0 0.0
2015-Feb-26 19:27N 37°48' W 122°18'0 0.0
2015-Feb-26 18:27N 37°48' W 122°18'0 0.0
2015-Feb-26 17:27N 37°48' W 122°18'0 0.1
2015-Feb-26 16:33N 37°48' W 122°18'1 1.1
2015-Feb-26 15:33N 37°48' W 122°17'0 0.0
2015-Feb-26 14:31N 37°48' W 122°17'0 0.0
2015-Feb-26 13:31N 37°48' W 122°17'0 0.0
2015-Feb-26 12:31N 37°48' W 122°17'0 0.0
2015-Feb-26 11:31N 37°48' W 122°17'0 0.0
2015-Feb-26 10:31N 37°48' W 122°17'0 0.0
2015-Feb-26 09:31N 37°48' W 122°17'0 0.0
2015-Feb-26 08:31N 37°48' W 122°17'0 0.0
2015-Feb-26 07:31N 37°48' W 122°17'0 0.0
2015-Feb-26 06:33N 37°48' W 122°17'3 3.4
2015-Feb-26 05:33N 37°49' W 122°21'6 6.0
2015-Feb-26 04:33N 37°54' W 122°25'3 2.5
2015-Feb-26 03:32N 37°55' W 122°22'0 0.0
2015-Feb-26 02:31N 37°55' W 122°22'0 0.0
2015-Feb-26 01:31N 37°55' W 122°22'0 0.0
2015-Feb-26 00:31N 37°55' W 122°22'0 0.0
2015-Feb-25 23:28N 37°55' W 122°22'0 0.0
2015-Feb-25 22:28N 37°55' W 122°22'0 0.0
2015-Feb-25 21:31N 37°55' W 122°22'0 0.0
2015-Feb-25 20:31N 37°55' W 122°22'0 0.0
2015-Feb-25 19:34N 37°55' W 122°22'3 3.2
2015-Feb-25 18:33N 37°52' W 122°24'6 6.4
2015-Feb-25 17:33N 37°48' W 122°19'0 0.0
2015-Feb-25 16:33N 37°48' W 122°19'0 0.0
2015-Feb-25 15:33N 37°48' W 122°19'1 1.3
2015-Feb-25 14:33N 37°48' W 122°17'0 0.0
2015-Feb-25 13:33N 37°48' W 122°17'0 0.0
2015-Feb-25 12:33N 37°48' W 122°17'0 0.0
2015-Feb-25 11:33N 37°48' W 122°17'0 0.0
2015-Feb-25 10:33N 37°48' W 122°17'0 0.0
2015-Feb-25 09:33N 37°48' W 122°17'0 0.0
2015-Feb-25 08:32N 37°48' W 122°17'0 0.0
2015-Feb-25 07:29N 37°48' W 122°17'0 0.0
2015-Feb-25 06:32N 37°48' W 122°17'0 0.0
2015-Feb-25 05:32N 37°48' W 122°17'0 0.0
2015-Feb-25 04:32N 37°48' W 122°17'1 1.0
2015-Feb-25 03:33N 37°48' W 122°18'4 3.5
2015-Feb-25 02:33N 37°44' W 122°20'0 0.1
2015-Feb-25 01:32N 37°44' W 122°20'0 0.1
2015-Feb-25 00:32N 37°44' W 122°20'0 0.1
2015-Feb-24 23:33N 37°44' W 122°20'2 2.2
2015-Feb-24 22:34N 37°46' W 122°20'1 1.4
2015-Feb-24 21:32N 37°46' W 122°18'0 0.0
2015-Feb-24 20:32N 37°46' W 122°18'0 0.0
2015-Feb-24 19:32N 37°46' W 122°18'0 0.0
2015-Feb-24 18:26N 37°46' W 122°18'0 0.3
2015-Feb-24 17:33N 37°46' W 122°18'2 1.6
2015-Feb-24 16:33N 37°48' W 122°17'0 0.0
2015-Feb-24 15:28N 37°48' W 122°17'0 0.0
2015-Feb-24 14:31N 37°48' W 122°17'0 0.0
2015-Feb-24 13:31N 37°48' W 122°17'0 0.0
2015-Feb-24 12:31N 37°48' W 122°17'0 0.0
2015-Feb-24 11:31N 37°48' W 122°17'0 0.0
2015-Feb-24 10:31N 37°48' W 122°17'0 0.0
2015-Feb-24 09:31N 37°48' W 122°17'0 0.0
2015-Feb-24 08:31N 37°48' W 122°17'0 0.0
2015-Feb-24 07:31N 37°48' W 122°17'0 0.0
2015-Feb-24 06:31N 37°48' W 122°17'0 0.0
2015-Feb-24 05:31N 37°48' W 122°17'0 0.0
2015-Feb-24 04:28N 37°48' W 122°17'1 0.7
2015-Feb-24 03:33N 37°48' W 122°18'3 3.2
2015-Feb-24 02:33N 37°46' W 122°21'0 0.2
2015-Feb-24 01:33N 37°46' W 122°22'0 0.3
2015-Feb-24 00:30N 37°45' W 122°21'2 2.3
2015-Feb-23 23:33N 37°44' W 122°20'0 0.0
2015-Feb-23 22:32N 37°44' W 122°20'0 0.0
2015-Feb-23 21:32N 37°44' W 122°20'0 0.0
2015-Feb-23 20:32N 37°44' W 122°20'0 0.1
2015-Feb-23 19:32N 37°44' W 122°20'0 0.0
2015-Feb-23 18:32N 37°44' W 122°20'0 0.3
2015-Feb-23 17:29N 37°44' W 122°20'1 1.5
2015-Feb-23 16:31N 37°43' W 122°19'0 0.0
2015-Feb-23 15:31N 37°43' W 122°19'0 0.0
2015-Feb-23 14:33N 37°43' W 122°19'3 2.6
2015-Feb-23 13:26N 37°46' W 122°20'0 0.1
2015-Feb-23 12:32N 37°45' W 122°20'0 0.1
2015-Feb-23 11:23N 37°45' W 122°20'0 0.1
2015-Feb-23 10:32N 37°45' W 122°20'2 2.1
2015-Feb-23 09:33N 37°47' W 122°20'3 2.6
2015-Feb-23 08:32N 37°48' W 122°17'0 0.0
2015-Feb-23 07:32N 37°48' W 122°17'0 0.0
2015-Feb-23 06:29N 37°48' W 122°17'0 0.0
2015-Feb-23 05:32N 37°48' W 122°17'0 0.0
2015-Feb-23 04:32N 37°48' W 122°17'0 0.0
2015-Feb-23 03:32N 37°48' W 122°17'0 0.0
2015-Feb-23 02:32N 37°48' W 122°17'0 0.0
2015-Feb-23 01:31N 37°48' W 122°17'0 0.0
2015-Feb-23 00:31N 37°48' W 122°17'0 0.0
2015-Feb-22 23:31N 37°48' W 122°17'0 0.0
2015-Feb-22 22:28N 37°48' W 122°17'0 0.0
2015-Feb-22 21:31N 37°48' W 122°17'0 0.0
2015-Feb-22 20:28N 37°48' W 122°17'0 0.0
2015-Feb-22 19:31N 37°48' W 122°17'0 0.0
2015-Feb-22 18:31N 37°48' W 122°17'0 0.0
2015-Feb-22 17:31N 37°48' W 122°17'0 0.0
2015-Feb-22 16:31N 37°48' W 122°17'0 0.0
2015-Feb-22 15:31N 37°48' W 122°17'0 0.0
2015-Feb-22 14:31N 37°48' W 122°17'0 0.0
2015-Feb-22 13:31N 37°48' W 122°17'0 0.0
2015-Feb-22 12:31N 37°48' W 122°17'0 0.0
2015-Feb-22 11:31N 37°48' W 122°17'0 0.0
2015-Feb-22 10:31N 37°48' W 122°17'0 0.0
2015-Feb-22 09:31N 37°48' W 122°17'0 0.0
2015-Feb-22 08:31N 37°48' W 122°17'0 0.0
2015-Feb-22 07:31N 37°48' W 122°17'3 2.8
2015-Feb-22 06:33N 37°48' W 122°20'3 3.1
2015-Feb-22 05:32N 37°45' W 122°21'0 0.2
2015-Feb-22 04:29N 37°45' W 122°21'0 0.1
2015-Feb-22 03:32N 37°45' W 122°21'0 0.2
2015-Feb-22 02:33N 37°45' W 122°21'2 1.9
2015-Feb-22 01:33N 37°47' W 122°21'5 4.5
2015-Feb-22 00:33N 37°51' W 122°24'4 4.0
2015-Feb-21 23:33N 37°55' W 122°22'0 0.1
2015-Feb-21 22:33N 37°55' W 122°22'0 0.0
2015-Feb-21 21:33N 37°55' W 122°22'0 0.0
2015-Feb-21 20:33N 37°55' W 122°22'0 0.0
2015-Feb-21 19:33N 37°55' W 122°22'0 0.0
2015-Feb-21 18:24N 37°55' W 122°22'0 0.0
2015-Feb-21 17:32N 37°55' W 122°22'0 0.0
2015-Feb-21 16:29N 37°55' W 122°22'0 0.0
2015-Feb-21 15:32N 37°55' W 122°22'0 0.0
2015-Feb-21 14:34N 37°55' W 122°22'2 2.4
2015-Feb-21 13:33N 37°54' W 122°25'7 7.0
2015-Feb-21 12:33N 37°48' W 122°20'3 2.7
2015-Feb-21 11:32N 37°48' W 122°17'0 0.0
2015-Feb-21 10:32N 37°48' W 122°17'0 0.0
2015-Feb-21 09:32N 37°48' W 122°17'0 0.0
2015-Feb-21 08:32N 37°48' W 122°17'0 0.0
2015-Feb-21 07:32N 37°48' W 122°17'0 0.0
2015-Feb-21 06:29N 37°48' W 122°17'0 0.0
2015-Feb-21 05:32N 37°48' W 122°17'0 0.0
2015-Feb-21 04:31N 37°48' W 122°17'1 0.8
2015-Feb-21 03:11N 37°48' W 122°18'0 0.1
2015-Feb-21 02:11N 37°48' W 122°18'0 0.0
2015-Feb-21 01:11N 37°48' W 122°18'0 0.0
2015-Feb-21 00:33N 37°48' W 122°18'2 2.3
2015-Feb-20 23:33N 37°49' W 122°21'6 6.0
2015-Feb-20 22:33N 37°54' W 122°25'7 6.5
2015-Feb-20 21:33N 38°00' W 122°24'6 5.8
2015-Feb-20 20:32N 38°03' W 122°17'  
Track history (hours):
 
Tides and Currents Weather Stations Pressure Air Temp Water Temp Dewpoint Dewpoint Depression Visibility Wind Speed Wind Dir Waves Ship Positions

Royal Melbourne

Owner: Harley Marine Services, Inc, Seattle, WA. More information available from US FCC via Universal Licensing System and Coast Guard Vessel Documentation Center.

Last reported at 2015-Mar-02 10:28 UTC. Time now 2015-Mar-02 11:16 UTC.
Position N 37°48' W 122°17'.

Length 30 m; draft 2 m.

Type: Tug. MMSI: 366998830.

Date/timePositionNaut miles runAvg speedWind from/ knotsBaromVisibWave heightAir tempDewpointWater temp
2015-Mar-02 10:28N 37°48' W 122°17'0 0.0
2015-Mar-02 09:22N 37°48' W 122°17'0 0.0
2015-Mar-02 08:28N 37°48' W 122°17'0 0.0
2015-Mar-02 07:28N 37°48' W 122°17'0 0.0
2015-Mar-02 06:33N 37°48' W 122°17'4 4.0
2015-Mar-02 05:33N 37°45' W 122°21'0 0.0
2015-Mar-02 04:27N 37°45' W 122°21'0 0.0
2015-Mar-02 03:33N 37°45' W 122°21'0 0.1
2015-Mar-02 02:33N 37°45' W 122°21'0 0.0
2015-Mar-02 01:09N 37°45' W 122°21'0 0.1
2015-Mar-02 00:33N 37°46' W 122°21'1 0.9
2015-Mar-01 23:33N 37°46' W 122°20'0 0.1
2015-Mar-01 22:21N 37°46' W 122°21'0 0.0
2015-Mar-01 21:30N 37°46' W 122°21'2 1.8
2015-Mar-01 20:33N 37°48' W 122°20'2 2.4
2015-Mar-01 19:31N 37°48' W 122°17'0 0.0
2015-Mar-01 18:28N 37°48' W 122°17'0 0.0
2015-Mar-01 17:31N 37°48' W 122°17'0 0.0
2015-Mar-01 16:31N 37°48' W 122°17'0 0.0
2015-Mar-01 15:13N 37°48' W 122°17'0 0.0
2015-Mar-01 14:28N 37°48' W 122°17'0 0.0
2015-Mar-01 13:28N 37°48' W 122°17'0 0.0
2015-Mar-01 12:28N 37°48' W 122°17'0 0.0
2015-Mar-01 11:22N 37°48' W 122°17'0 0.0
2015-Mar-01 10:28N 37°48' W 122°17'0 0.0
2015-Mar-01 09:28N 37°48' W 122°17'0 0.0
2015-Mar-01 08:31N 37°48' W 122°17'0 0.0
2015-Mar-01 07:28N 37°48' W 122°17'0 0.0
2015-Mar-01 06:28N 37°48' W 122°17'0 0.0
2015-Mar-01 05:31N 37°48' W 122°17'0 0.0
2015-Mar-01 04:22N 37°48' W 122°17'0 0.0
2015-Mar-01 03:22N 37°48' W 122°17'0 0.0
2015-Mar-01 01:30N 37°48' W 122°17'0 0.0
2015-Mar-01 00:33N 37°48' W 122°17'0 0.0
2015-Feb-28 23:33N 37°48' W 122°17'0 0.0
2015-Feb-28 22:33N 37°48' W 122°17'0 0.0
2015-Feb-28 21:33N 37°48' W 122°17'0 0.0
2015-Feb-28 20:30N 37°48' W 122°17'0 0.0
2015-Feb-28 19:33N 37°48' W 122°17'0 0.0
2015-Feb-28 18:30N 37°48' W 122°17'0 0.0
2015-Feb-28 17:18N 37°48' W 122°17'0 0.0
2015-Feb-28 16:33N 37°48' W 122°17'0 0.0
2015-Feb-28 15:33N 37°48' W 122°17'0 0.0
2015-Feb-28 13:24N 37°48' W 122°17'0 0.0
2015-Feb-28 12:15N 37°48' W 122°17'0 0.0
2015-Feb-28 11:30N 37°48' W 122°17'0 0.0
2015-Feb-28 10:33N 37°48' W 122°17'0 0.0
2015-Feb-28 09:33N 37°48' W 122°17'0 0.0
2015-Feb-28 08:33N 37°48' W 122°17'0 0.0
2015-Feb-28 07:27N 37°48' W 122°17'0 0.0
2015-Feb-28 06:30N 37°48' W 122°17'0 0.0
2015-Feb-28 05:33N 37°48' W 122°17'0 0.0
2015-Feb-28 04:33N 37°48' W 122°17'0 0.0
2015-Feb-28 03:33N 37°48' W 122°17'0 0.0
2015-Feb-28 02:30N 37°48' W 122°17'0 0.0
2015-Feb-28 01:33N 37°48' W 122°17'0 0.0
2015-Feb-28 00:33N 37°48' W 122°17'0 0.0
2015-Feb-27 23:30N 37°48' W 122°17'0 0.0
2015-Feb-27 22:33N 37°48' W 122°17'0 0.0
2015-Feb-27 21:33N 37°48' W 122°17'0 0.0
2015-Feb-27 20:30N 37°48' W 122°17'0 0.0
2015-Feb-27 19:33N 37°48' W 122°17'0 0.0
2015-Feb-27 18:33N 37°48' W 122°17'0 0.0
2015-Feb-27 17:32N 37°48' W 122°17'0 0.0
2015-Feb-27 16:32N 37°48' W 122°17'0 0.0
2015-Feb-27 15:29N 37°48' W 122°17'0 0.0
2015-Feb-27 14:32N 37°48' W 122°17'0 0.0
2015-Feb-27 13:32N 37°48' W 122°17'0 0.0
2015-Feb-27 12:32N 37°48' W 122°17'0 0.0
2015-Feb-27 11:32N 37°48' W 122°17'0 0.0
2015-Feb-27 10:32N 37°48' W 122°17'0 0.0
2015-Feb-27 09:29N 37°48' W 122°17'0 0.0
2015-Feb-27 08:32N 37°48' W 122°17'0 0.0
2015-Feb-27 07:26N 37°48' W 122°17'0 0.0
2015-Feb-27 06:32N 37°48' W 122°17'0 0.0
2015-Feb-27 05:32N 37°48' W 122°17'0 0.1
2015-Feb-27 04:32N 37°48' W 122°17'1 1.3
2015-Feb-27 03:31N 37°48' W 122°19'0 0.0
2015-Feb-27 02:31N 37°48' W 122°19'0 0.0
2015-Feb-27 01:33N 37°48' W 122°19'1 1.3
2015-Feb-27 00:33N 37°49' W 122°19'0 0.0
2015-Feb-26 23:32N 37°49' W 122°19'0 0.0
2015-Feb-26 22:33N 37°49' W 122°19'2 1.5
2015-Feb-26 21:34N 37°48' W 122°18'0 0.0
2015-Feb-26 20:33N 37°48' W 122°18'0 0.0
2015-Feb-26 19:27N 37°48' W 122°18'0 0.0
2015-Feb-26 18:27N 37°48' W 122°18'0 0.0
2015-Feb-26 17:27N 37°48' W 122°18'0 0.1
2015-Feb-26 16:33N 37°48' W 122°18'1 1.1
2015-Feb-26 15:33N 37°48' W 122°17'0 0.0
2015-Feb-26 14:31N 37°48' W 122°17'0 0.0
2015-Feb-26 13:31N 37°48' W 122°17'0 0.0
2015-Feb-26 12:31N 37°48' W 122°17'0 0.0
2015-Feb-26 11:31N 37°48' W 122°17'0 0.0
2015-Feb-26 10:31N 37°48' W 122°17'0 0.0
2015-Feb-26 09:31N 37°48' W 122°17'0 0.0
2015-Feb-26 08:31N 37°48' W 122°17'0 0.0
2015-Feb-26 07:31N 37°48' W 122°17'0 0.0
2015-Feb-26 06:33N 37°48' W 122°17'3 3.4
2015-Feb-26 05:33N 37°49' W 122°21'6 6.0
2015-Feb-26 04:33N 37°54' W 122°25'3 2.5
2015-Feb-26 03:32N 37°55' W 122°22'0 0.0
2015-Feb-26 02:31N 37°55' W 122°22'0 0.0
2015-Feb-26 01:31N 37°55' W 122°22'0 0.0
2015-Feb-26 00:31N 37°55' W 122°22'0 0.0
2015-Feb-25 23:28N 37°55' W 122°22'0 0.0
2015-Feb-25 22:28N 37°55' W 122°22'0 0.0
2015-Feb-25 21:31N 37°55' W 122°22'0 0.0
2015-Feb-25 20:31N 37°55' W 122°22'0 0.0
2015-Feb-25 19:34N 37°55' W 122°22'3 3.2
2015-Feb-25 18:33N 37°52' W 122°24'6 6.4
2015-Feb-25 17:33N 37°48' W 122°19'0 0.0
2015-Feb-25 16:33N 37°48' W 122°19'0 0.0
2015-Feb-25 15:33N 37°48' W 122°19'1 1.3
2015-Feb-25 14:33N 37°48' W 122°17'0 0.0
2015-Feb-25 13:33N 37°48' W 122°17'0 0.0
2015-Feb-25 12:33N 37°48' W 122°17'0 0.0
2015-Feb-25 11:33N 37°48' W 122°17'0 0.0
2015-Feb-25 10:33N 37°48' W 122°17'0 0.0
2015-Feb-25 09:33N 37°48' W 122°17'0 0.0
2015-Feb-25 08:32N 37°48' W 122°17'0 0.0
2015-Feb-25 07:29N 37°48' W 122°17'0 0.0
2015-Feb-25 06:32N 37°48' W 122°17'0 0.0
2015-Feb-25 05:32N 37°48' W 122°17'0 0.0
2015-Feb-25 04:32N 37°48' W 122°17'1 1.0
2015-Feb-25 03:33N 37°48' W 122°18'4 3.5
2015-Feb-25 02:33N 37°44' W 122°20'0 0.1
2015-Feb-25 01:32N 37°44' W 122°20'0 0.1
2015-Feb-25 00:32N 37°44' W 122°20'0 0.1
2015-Feb-24 23:33N 37°44' W 122°20'2 2.2
2015-Feb-24 22:34N 37°46' W 122°20'1 1.4
2015-Feb-24 21:32N 37°46' W 122°18'0 0.0
2015-Feb-24 20:32N 37°46' W 122°18'0 0.0
2015-Feb-24 19:32N 37°46' W 122°18'0 0.0
2015-Feb-24 18:26N 37°46' W 122°18'0 0.3
2015-Feb-24 17:33N 37°46' W 122°18'2 1.6
2015-Feb-24 16:33N 37°48' W 122°17'0 0.0
2015-Feb-24 15:28N 37°48' W 122°17'0 0.0
2015-Feb-24 14:31N 37°48' W 122°17'0 0.0
2015-Feb-24 13:31N 37°48' W 122°17'0 0.0
2015-Feb-24 12:31N 37°48' W 122°17'0 0.0
2015-Feb-24 11:31N 37°48' W 122°17'0 0.0
2015-Feb-24 10:31N 37°48' W 122°17'0 0.0
2015-Feb-24 09:31N 37°48' W 122°17'0 0.0
2015-Feb-24 08:31N 37°48' W 122°17'0 0.0
2015-Feb-24 07:31N 37°48' W 122°17'0 0.0
2015-Feb-24 06:31N 37°48' W 122°17'0 0.0
2015-Feb-24 05:31N 37°48' W 122°17'0 0.0
2015-Feb-24 04:28N 37°48' W 122°17'1 0.7
2015-Feb-24 03:33N 37°48' W 122°18'3 3.2
2015-Feb-24 02:33N 37°46' W 122°21'0 0.2
2015-Feb-24 01:33N 37°46' W 122°22'0 0.3
2015-Feb-24 00:30N 37°45' W 122°21'2 2.3
2015-Feb-23 23:33N 37°44' W 122°20'0 0.0
2015-Feb-23 22:32N 37°44' W 122°20'0 0.0
2015-Feb-23 21:32N 37°44' W 122°20'0 0.0
2015-Feb-23 20:32N 37°44' W 122°20'0 0.1
2015-Feb-23 19:32N 37°44' W 122°20'0 0.0
2015-Feb-23 18:32N 37°44' W 122°20'0 0.3
2015-Feb-23 17:29N 37°44' W 122°20'1 1.5
2015-Feb-23 16:31N 37°43' W 122°19'0 0.0
2015-Feb-23 15:31N 37°43' W 122°19'0 0.0
2015-Feb-23 14:33N 37°43' W 122°19'3 2.6
2015-Feb-23 13:26N 37°46' W 122°20'0 0.1
2015-Feb-23 12:32N 37°45' W 122°20'0 0.1
2015-Feb-23 11:23N 37°45' W 122°20'0 0.1
2015-Feb-23 10:32N 37°45' W 122°20'2 2.1
2015-Feb-23 09:33N 37°47' W 122°20'3 2.6
2015-Feb-23 08:32N 37°48' W 122°17'0 0.0
2015-Feb-23 07:32N 37°48' W 122°17'0 0.0
2015-Feb-23 06:29N 37°48' W 122°17'0 0.0
2015-Feb-23 05:32N 37°48' W 122°17'0 0.0
2015-Feb-23 04:32N 37°48' W 122°17'0 0.0
2015-Feb-23 03:32N 37°48' W 122°17'0 0.0
2015-Feb-23 02:32N 37°48' W 122°17'0 0.0
2015-Feb-23 01:31N 37°48' W 122°17'0 0.0
2015-Feb-23 00:31N 37°48' W 122°17'0 0.0
2015-Feb-22 23:31N 37°48' W 122°17'0 0.0
2015-Feb-22 22:28N 37°48' W 122°17'0 0.0
2015-Feb-22 21:31N 37°48' W 122°17'0 0.0
2015-Feb-22 20:28N 37°48' W 122°17'0 0.0
2015-Feb-22 19:31N 37°48' W 122°17'0 0.0
2015-Feb-22 18:31N 37°48' W 122°17'0 0.0
2015-Feb-22 17:31N 37°48' W 122°17'0 0.0
2015-Feb-22 16:31N 37°48' W 122°17'0 0.0
2015-Feb-22 15:31N 37°48' W 122°17'0 0.0
2015-Feb-22 14:31N 37°48' W 122°17'0 0.0
2015-Feb-22 13:31N 37°48' W 122°17'0 0.0
2015-Feb-22 12:31N 37°48' W 122°17'0 0.0
2015-Feb-22 11:31N 37°48' W 122°17'0 0.0
2015-Feb-22 10:31N 37°48' W 122°17'0 0.0
2015-Feb-22 09:31N 37°48' W 122°17'0 0.0
2015-Feb-22 08:31N 37°48' W 122°17'0 0.0
2015-Feb-22 07:31N 37°48' W 122°17'3 2.8
2015-Feb-22 06:33N 37°48' W 122°20'3 3.1
2015-Feb-22 05:32N 37°45' W 122°21'0 0.2
2015-Feb-22 04:29N 37°45' W 122°21'0 0.1
2015-Feb-22 03:32N 37°45' W 122°21'0 0.2
2015-Feb-22 02:33N 37°45' W 122°21'2 1.9
2015-Feb-22 01:33N 37°47' W 122°21'5 4.5
2015-Feb-22 00:33N 37°51' W 122°24'4 4.0
2015-Feb-21 23:33N 37°55' W 122°22'0 0.1
2015-Feb-21 22:33N 37°55' W 122°22'0 0.0
2015-Feb-21 21:33N 37°55' W 122°22'0 0.0
2015-Feb-21 20:33N 37°55' W 122°22'0 0.0
2015-Feb-21 19:33N 37°55' W 122°22'0 0.0
2015-Feb-21 18:24N 37°55' W 122°22'0 0.0
2015-Feb-21 17:32N 37°55' W 122°22'0 0.0
2015-Feb-21 16:29N 37°55' W 122°22'0 0.0
2015-Feb-21 15:32N 37°55' W 122°22'0 0.0
2015-Feb-21 14:34N 37°55' W 122°22'2 2.4
2015-Feb-21 13:33N 37°54' W 122°25'7 7.0
2015-Feb-21 12:33N 37°48' W 122°20'3 2.7
2015-Feb-21 11:32N 37°48' W 122°17'0 0.0
2015-Feb-21 10:32N 37°48' W 122°17'0 0.0
2015-Feb-21 09:32N 37°48' W 122°17'0 0.0
2015-Feb-21 08:32N 37°48' W 122°17'0 0.0
2015-Feb-21 07:32N 37°48' W 122°17'0 0.0
2015-Feb-21 06:29N 37°48' W 122°17'0 0.0
2015-Feb-21 05:32N 37°48' W 122°17'0 0.0
2015-Feb-21 04:31N 37°48' W 122°17'1 0.8
2015-Feb-21 03:11N 37°48' W 122°18'0 0.1
2015-Feb-21 02:11N 37°48' W 122°18'0 0.0
2015-Feb-21 01:11N 37°48' W 122°18'0 0.0
2015-Feb-21 00:33N 37°48' W 122°18'2 2.3
2015-Feb-20 23:33N 37°49' W 122°21'6 6.0
2015-Feb-20 22:33N 37°54' W 122°25'7 6.5
2015-Feb-20 21:33N 38°00' W 122°24'6 5.8
2015-Feb-20 20:32N 38°03' W 122°17'  

Dump ship's entire track history